sensor_id;sensor_type;location;lat;lon;timestamp;pressure;altitude;pressure_sealevel;temperature;humidity
70053;BME280;57398;52.032;4.376;2023-04-28T00:01:52;101510.81;;;8.64;nan
70053;BME280;57398;52.032;4.376;2023-04-28T00:04:40;101484.66;;;8.58;nan
70053;BME280;57398;52.032;4.376;2023-04-28T00:07:29;101481.28;;;8.58;nan
70053;BME280;57398;52.032;4.376;2023-04-28T00:10:17;101486.84;;;8.55;nan
70053;BME280;57398;52.032;4.376;2023-04-28T00:13:06;101480.47;;;8.57;nan
70053;BME280;57398;52.032;4.376;2023-04-28T00:15:54;101484.03;;;8.56;nan
70053;BME280;57398;52.032;4.376;2023-04-28T00:18:42;101482.47;;;8.55;nan
70053;BME280;57398;52.032;4.376;2023-04-28T00:21:31;101474.50;;;8.57;nan
70053;BME280;57398;52.032;4.376;2023-04-28T00:24:19;101471.91;;;8.57;nan
70053;BME280;57398;52.032;4.376;2023-04-28T00:27:07;101452.97;;;8.56;nan
70053;BME280;57398;52.032;4.376;2023-04-28T00:29:56;101444.41;;;8.56;nan
70053;BME280;57398;52.032;4.376;2023-04-28T00:32:44;101436.28;;;8.59;nan
70053;BME280;57398;52.032;4.376;2023-04-28T00:35:32;101442.25;;;8.59;nan
70053;BME280;57398;52.032;4.376;2023-04-28T00:38:20;101434.66;;;8.58;nan
70053;BME280;57398;52.032;4.376;2023-04-28T00:41:11;101431.09;;;8.59;nan
70053;BME280;57398;52.032;4.376;2023-04-28T00:44:00;101412.69;;;8.47;nan
70053;BME280;57398;52.032;4.376;2023-04-28T00:46:49;101419.13;;;8.58;nan
70053;BME280;57398;52.032;4.376;2023-04-28T00:49:37;101404.56;;;8.50;nan
70053;BME280;57398;52.032;4.376;2023-04-28T00:52:26;101402.38;;;8.54;nan
70053;BME280;57398;52.032;4.376;2023-04-28T00:55:15;101399.78;;;8.54;nan
70053;BME280;57398;52.032;4.376;2023-04-28T00:58:04;101391.81;;;8.55;nan
70053;BME280;57398;52.032;4.376;2023-04-28T01:00:52;101372.13;;;8.54;nan
70053;BME280;57398;52.032;4.376;2023-04-28T01:03:42;101377.47;;;8.53;nan
70053;BME280;57398;52.032;4.376;2023-04-28T01:06:30;101376.47;;;8.54;nan
70053;BME280;57398;52.032;4.376;2023-04-28T01:09:19;101359.16;;;8.54;nan
70053;BME280;57398;52.032;4.376;2023-04-28T01:12:07;101351.41;;;8.54;nan
70053;BME280;57398;52.032;4.376;2023-04-28T01:14:55;101356.34;;;8.49;nan
70053;BME280;57398;52.032;4.376;2023-04-28T01:17:44;101344.78;;;8.52;nan
70053;BME280;57398;52.032;4.376;2023-04-28T01:20:33;101341.41;;;8.51;nan
70053;BME280;57398;52.032;4.376;2023-04-28T01:23:21;101332.41;;;8.47;nan
70053;BME280;57398;52.032;4.376;2023-04-28T01:26:11;101334.03;;;8.48;nan
70053;BME280;57398;52.032;4.376;2023-04-28T01:28:59;101318.50;;;8.48;nan
70053;BME280;57398;52.032;4.376;2023-04-28T01:31:47;101304.16;;;8.46;nan
70053;BME280;57398;52.032;4.376;2023-04-28T01:34:35;101293.19;;;8.44;nan
70053;BME280;57398;52.032;4.376;2023-04-28T01:37:23;101272.25;;;8.45;nan
70053;BME280;57398;52.032;4.376;2023-04-28T01:40:12;101261.31;;;8.43;nan
70053;BME280;57398;52.032;4.376;2023-04-28T01:43:02;101251.56;;;8.45;nan
70053;BME280;57398;52.032;4.376;2023-04-28T01:45:50;101267.69;;;8.47;nan
70053;BME280;57398;52.032;4.376;2023-04-28T01:48:38;101262.34;;;8.49;nan
70053;BME280;57398;52.032;4.376;2023-04-28T01:51:26;101249.00;;;8.52;nan
70053;BME280;57398;52.032;4.376;2023-04-28T01:54:14;101246.63;;;8.50;nan
70053;BME280;57398;52.032;4.376;2023-04-28T01:57:02;101237.22;;;8.49;nan
70053;BME280;57398;52.032;4.376;2023-04-28T01:59:52;101235.66;;;8.48;nan
70053;BME280;57398;52.032;4.376;2023-04-28T02:02:40;101234.66;;;8.49;nan
70053;BME280;57398;52.032;4.376;2023-04-28T02:05:28;101239.03;;;8.49;nan
70053;BME280;57398;52.032;4.376;2023-04-28T02:08:16;101234.47;;;8.51;nan
70053;BME280;57398;52.032;4.376;2023-04-28T02:11:04;101220.47;;;8.45;nan
70053;BME280;57398;52.032;4.376;2023-04-28T02:13:52;101223.06;;;8.45;nan
70053;BME280;57398;52.032;4.376;2023-04-28T02:16:42;101219.69;;;8.45;nan
70053;BME280;57398;52.032;4.376;2023-04-28T02:19:30;101212.97;;;8.50;nan
70053;BME280;57398;52.032;4.376;2023-04-28T02:22:18;101215.72;;;8.49;nan
70053;BME280;57398;52.032;4.376;2023-04-28T02:25:07;101220.72;;;8.50;nan
70053;BME280;57398;52.032;4.376;2023-04-28T02:27:55;101200.38;;;8.47;nan
70053;BME280;57398;52.032;4.376;2023-04-28T02:30:44;101195.81;;;8.49;nan
70053;BME280;57398;52.032;4.376;2023-04-28T02:33:34;101192.63;;;8.47;nan
70053;BME280;57398;52.032;4.376;2023-04-28T02:36:22;101184.25;;;8.45;nan
70053;BME280;57398;52.032;4.376;2023-04-28T02:39:11;101177.09;;;8.47;nan
70053;BME280;57398;52.032;4.376;2023-04-28T02:41:59;101172.88;;;8.39;nan
70053;BME280;57398;52.032;4.376;2023-04-28T02:44:47;101175.06;;;8.43;nan
70053;BME280;57398;52.032;4.376;2023-04-28T02:47:35;101113.78;;;8.43;nan
70053;BME280;57398;52.032;4.376;2023-04-28T02:50:24;101099.63;;;8.46;nan
70053;BME280;57398;52.032;4.376;2023-04-28T02:53:13;101076.13;;;8.47;nan
70053;BME280;57398;52.032;4.376;2023-04-28T02:56:01;101064.59;;;8.43;nan
70053;BME280;57398;52.032;4.376;2023-04-28T02:58:50;101061.41;;;8.41;nan
70053;BME280;57398;52.032;4.376;2023-04-28T03:01:38;101049.25;;;8.42;nan
70053;BME280;57398;52.032;4.376;2023-04-28T03:04:26;101047.44;;;8.49;nan
70053;BME280;57398;52.032;4.376;2023-04-28T03:07:16;101040.69;;;8.41;nan
70053;BME280;57398;52.032;4.376;2023-04-28T03:10:04;101031.91;;;8.42;nan
70053;BME280;57398;52.032;4.376;2023-04-28T03:12:52;101022.72;;;8.39;nan
70053;BME280;57398;52.032;4.376;2023-04-28T03:15:40;101012.38;;;8.39;nan
70053;BME280;57398;52.032;4.376;2023-04-28T03:18:29;101007.81;;;8.42;nan
70053;BME280;57398;52.032;4.376;2023-04-28T03:21:17;100984.53;;;8.42;nan
70053;BME280;57398;52.032;4.376;2023-04-28T03:24:06;100965.78;;;8.39;nan
70053;BME280;57398;52.032;4.376;2023-04-28T03:26:54;100966.59;;;8.40;nan
70053;BME280;57398;52.032;4.376;2023-04-28T03:29:43;100952.22;;;8.37;nan
70053;BME280;57398;52.032;4.376;2023-04-28T03:32:31;100955.84;;;8.36;nan
70053;BME280;57398;52.032;4.376;2023-04-28T03:35:19;100950.66;;;8.36;nan
70053;BME280;57398;52.032;4.376;2023-04-28T03:38:07;100939.91;;;8.33;nan
70053;BME280;57398;52.032;4.376;2023-04-28T03:40:57;100945.06;;;8.33;nan
70053;BME280;57398;52.032;4.376;2023-04-28T03:43:45;100939.50;;;8.29;nan
70053;BME280;57398;52.032;4.376;2023-04-28T03:46:34;100910.03;;;8.30;nan
70053;BME280;57398;52.032;4.376;2023-04-28T03:49:22;100910.81;;;8.31;nan
70053;BME280;57398;52.032;4.376;2023-04-28T03:52:10;100893.13;;;8.28;nan
70053;BME280;57398;52.032;4.376;2023-04-28T03:54:58;100882.59;;;8.23;nan
70053;BME280;57398;52.032;4.376;2023-04-28T03:57:48;100873.81;;;8.17;nan
70053;BME280;57398;52.032;4.376;2023-04-28T04:00:36;100856.72;;;8.09;nan
70053;BME280;57398;52.032;4.376;2023-04-28T04:03:24;100846.38;;;8.09;nan
70053;BME280;57398;52.032;4.376;2023-04-28T04:06:13;100836.22;;;8.08;nan
70053;BME280;57398;52.032;4.376;2023-04-28T04:09:01;100827.06;;;8.12;nan
70053;BME280;57398;52.032;4.376;2023-04-28T04:11:49;100825.06;;;8.07;nan
70053;BME280;57398;52.032;4.376;2023-04-28T04:14:39;100831.84;;;8.08;nan
70053;BME280;57398;52.032;4.376;2023-04-28T04:17:27;100835.41;;;8.14;nan
70053;BME280;57398;52.032;4.376;2023-04-28T04:20:15;100820.50;;;8.09;nan
70053;BME280;57398;52.032;4.376;2023-04-28T04:23:03;100818.69;;;8.10;nan
70053;BME280;57398;52.032;4.376;2023-04-28T04:25:52;100821.28;;;8.10;nan
70053;BME280;57398;52.032;4.376;2023-04-28T04:28:40;100777.47;;;8.15;nan
70053;BME280;57398;52.032;4.376;2023-04-28T04:31:29;100758.22;;;8.04;nan
70053;BME280;57398;52.032;4.376;2023-04-28T04:34:19;100724.22;;;7.94;nan
70053;BME280;57398;52.032;4.376;2023-04-28T04:37:08;100673.97;;;7.76;nan
70053;BME280;57398;52.032;4.376;2023-04-28T04:39:56;100625.25;;;7.60;nan
70053;BME280;57398;52.032;4.376;2023-04-28T04:42:44;100558.13;;;7.47;nan
70053;BME280;57398;52.032;4.376;2023-04-28T04:45:32;100518.78;;;7.38;nan
70053;BME280;57398;52.032;4.376;2023-04-28T04:48:21;100489.78;;;7.36;nan
70053;BME280;57398;52.032;4.376;2023-04-28T04:51:10;100466.13;;;7.32;nan
70053;BME280;57398;52.032;4.376;2023-04-28T04:53:58;100456.22;;;7.29;nan
70053;BME280;57398;52.032;4.376;2023-04-28T04:56:46;100445.88;;;7.29;nan
70053;BME280;57398;52.032;4.376;2023-04-28T04:59:34;100407.72;;;7.31;nan
70053;BME280;57398;52.032;4.376;2023-04-28T05:02:22;100390.81;;;7.29;nan
70053;BME280;57398;52.032;4.376;2023-04-28T05:05:12;100386.88;;;7.26;nan
70053;BME280;57398;52.032;4.376;2023-04-28T05:08:07;100394.19;;;7.29;nan
70053;BME280;57398;52.032;4.376;2023-04-28T05:10:55;100388.44;;;7.27;nan
70053;BME280;57398;52.032;4.376;2023-04-28T05:13:43;100369.81;;;7.19;nan
70053;BME280;57398;52.032;4.376;2023-04-28T05:16:32;100373.16;;;7.19;nan
70053;BME280;57398;52.032;4.376;2023-04-28T05:19:20;100388.75;;;7.06;nan
70053;BME280;57398;52.032;4.376;2023-04-28T05:22:09;100379.44;;;6.98;nan
70053;BME280;57398;52.032;4.376;2023-04-28T05:24:57;100382.25;;;6.97;nan
70053;BME280;57398;52.032;4.376;2023-04-28T05:27:46;100378.22;;;7.01;nan
70053;BME280;57398;52.032;4.376;2023-04-28T05:30:34;100391.38;;;6.99;nan
70053;BME280;57398;52.032;4.376;2023-04-28T05:33:22;100394.72;;;7.00;nan
70053;BME280;57398;52.032;4.376;2023-04-28T05:36:10;100402.06;;;7.03;nan
70053;BME280;57398;52.032;4.376;2023-04-28T05:39:00;100413.56;;;7.07;nan
70053;BME280;57398;52.032;4.376;2023-04-28T05:41:48;100418.53;;;7.15;nan
70053;BME280;57398;52.032;4.376;2023-04-28T05:44:39;100429.03;;;7.20;nan
70053;BME280;57398;52.032;4.376;2023-04-28T05:47:28;100433.59;;;7.18;nan
70053;BME280;57398;52.032;4.376;2023-04-28T05:50:17;100436.75;;;7.27;nan
70053;BME280;57398;52.032;4.376;2023-04-28T05:53:05;100451.47;;;7.26;nan
70053;BME280;57398;52.032;4.376;2023-04-28T05:55:55;100464.72;;;7.37;nan
70053;BME280;57398;52.032;4.376;2023-04-28T05:58:43;100464.53;;;7.31;nan
70053;BME280;57398;52.032;4.376;2023-04-28T06:01:32;100475.06;;;7.37;nan
70053;BME280;57398;52.032;4.376;2023-04-28T06:04:21;100481.41;;;7.41;nan
70053;BME280;57398;52.032;4.376;2023-04-28T06:07:09;100488.72;;;7.44;nan
70053;BME280;57398;52.032;4.376;2023-04-28T06:09:57;100504.63;;;7.47;nan
70053;BME280;57398;52.032;4.376;2023-04-28T06:12:47;100501.81;;;7.49;nan
70053;BME280;57398;52.032;4.376;2023-04-28T06:15:35;100509.97;;;7.52;nan
70053;BME280;57398;52.032;4.376;2023-04-28T06:18:23;100494.66;;;7.51;nan
70053;BME280;57398;52.032;4.376;2023-04-28T06:21:12;100498.81;;;7.59;nan
70053;BME280;57398;52.032;4.376;2023-04-28T06:24:01;100491.22;;;7.64;nan
70053;BME280;57398;52.032;4.376;2023-04-28T06:26:49;100474.66;;;7.71;nan
70053;BME280;57398;52.032;4.376;2023-04-28T06:29:38;100476.41;;;7.84;nan
70053;BME280;57398;52.032;4.376;2023-04-28T06:32:27;100475.13;;;7.93;nan
70053;BME280;57398;52.032;4.376;2023-04-28T06:35:15;100466.00;;;7.91;nan
70053;BME280;57398;52.032;4.376;2023-04-28T06:38:03;100471.41;;;8.14;nan
70053;BME280;57398;52.032;4.376;2023-04-28T06:40:52;100486.41;;;8.31;nan
70053;BME280;57398;52.032;4.376;2023-04-28T06:43:40;100493.97;;;8.32;nan
70053;BME280;57398;52.032;4.376;2023-04-28T06:46:29;100502.84;;;8.18;nan
70053;BME280;57398;52.032;4.376;2023-04-28T06:49:18;100512.75;;;8.21;nan
70053;BME280;57398;52.032;4.376;2023-04-28T06:52:06;100518.72;;;8.22;nan
70053;BME280;57398;52.032;4.376;2023-04-28T06:54:54;100548.31;;;8.32;nan
70053;BME280;57398;52.032;4.376;2023-04-28T06:57:42;100710.16;;;8.42;nan
70053;BME280;57398;52.032;4.376;2023-04-28T07:00:31;100742.16;;;8.47;nan
70053;BME280;57398;52.032;4.376;2023-04-28T07:03:20;100772.84;;;8.50;nan
70053;BME280;57398;52.032;4.376;2023-04-28T07:06:08;100783.38;;;8.49;nan
70053;BME280;57398;52.032;4.376;2023-04-28T07:08:57;100806.25;;;8.58;nan
70053;BME280;57398;52.032;4.376;2023-04-28T07:11:45;100832.09;;;8.72;nan
70053;BME280;57398;52.032;4.376;2023-04-28T07:14:33;100856.59;;;8.69;nan
70053;BME280;57398;52.032;4.376;2023-04-28T07:17:21;100880.09;;;8.74;nan
70053;BME280;57398;52.032;4.376;2023-04-28T07:20:13;100903.16;;;8.89;nan
70053;BME280;57398;52.032;4.376;2023-04-28T07:23:01;100922.66;;;8.98;nan
70053;BME280;57398;52.032;4.376;2023-04-28T07:25:49;100949.09;;;9.14;nan
70053;BME280;57398;52.032;4.376;2023-04-28T07:28:37;100963.22;;;9.18;nan
70053;BME280;57398;52.032;4.376;2023-04-28T07:31:25;100984.38;;;9.21;nan
70053;BME280;57398;52.032;4.376;2023-04-28T07:34:14;101005.97;;;9.54;nan
70053;BME280;57398;52.032;4.376;2023-04-28T07:37:05;101045.84;;;9.53;nan
70053;BME280;57398;52.032;4.376;2023-04-28T07:39:55;101050.84;;;9.48;nan
70053;BME280;57398;52.032;4.376;2023-04-28T07:42:43;101080.34;;;9.60;nan
70053;BME280;57398;52.032;4.376;2023-04-28T07:45:31;101094.47;;;9.64;nan
70053;BME280;57398;52.032;4.376;2023-04-28T07:48:19;101117.00;;;9.77;nan
70053;BME280;57398;52.032;4.376;2023-04-28T07:51:08;101133.31;;;9.84;nan
70053;BME280;57398;52.032;4.376;2023-04-28T07:53:58;101150.28;;;9.86;nan
70053;BME280;57398;52.032;4.376;2023-04-28T07:56:46;101148.06;;;9.97;nan
70053;BME280;57398;52.032;4.376;2023-04-28T07:59:34;101153.66;;;9.87;nan
70053;BME280;57398;52.032;4.376;2023-04-28T08:02:22;101168.00;;;9.96;nan
70053;BME280;57398;52.032;4.376;2023-04-28T08:05:12;101186.56;;;10.00;nan
70053;BME280;57398;52.032;4.376;2023-04-28T08:08:00;101183.97;;;10.00;nan
70053;BME280;57398;52.032;4.376;2023-04-28T08:10:49;101176.72;;;10.15;nan
70053;BME280;57398;52.032;4.376;2023-04-28T08:13:38;101155.50;;;10.25;nan
70053;BME280;57398;52.032;4.376;2023-04-28T08:16:26;101151.91;;;10.26;nan
70053;BME280;57398;52.032;4.376;2023-04-28T08:19:16;101149.72;;;10.30;nan
70053;BME280;57398;52.032;4.376;2023-04-28T08:22:04;101135.09;;;10.35;nan
70053;BME280;57398;52.032;4.376;2023-04-28T08:24:53;101128.72;;;10.38;nan
70053;BME280;57398;52.032;4.376;2023-04-28T08:27:42;101112.47;;;10.49;nan
70053;BME280;57398;52.032;4.376;2023-04-28T08:30:31;101098.13;;;10.65;nan
70053;BME280;57398;52.032;4.376;2023-04-28T08:33:19;101092.94;;;10.90;nan
70053;BME280;57398;52.032;4.376;2023-04-28T08:36:07;101083.84;;;10.99;nan
70053;BME280;57398;52.032;4.376;2023-04-28T08:38:57;101071.72;;;10.93;nan
70053;BME280;57398;52.032;4.376;2023-04-28T08:41:46;101063.28;;;10.98;nan
70053;BME280;57398;52.032;4.376;2023-04-28T08:44:37;101053.41;;;11.06;nan
70053;BME280;57398;52.032;4.376;2023-04-28T08:47:32;101044.31;;;11.16;nan
70053;BME280;57398;52.032;4.376;2023-04-28T08:50:21;101028.19;;;11.07;nan
70053;BME280;57398;52.032;4.376;2023-04-28T08:53:11;101027.09;;;11.33;nan
70053;BME280;57398;52.032;4.376;2023-04-28T08:56:01;101014.44;;;11.55;nan
70053;BME280;57398;52.032;4.376;2023-04-28T08:58:52;101010.78;;;11.56;nan
70053;BME280;57398;52.032;4.376;2023-04-28T09:01:43;100984.13;;;11.61;nan
70053;BME280;57398;52.032;4.376;2023-04-28T09:04:31;100986.81;;;11.54;nan
70053;BME280;57398;52.032;4.376;2023-04-28T09:07:19;100984.50;;;11.76;nan
70053;BME280;57398;52.032;4.376;2023-04-28T09:10:18;100983.44;;;11.95;nan
70053;BME280;57398;52.032;4.376;2023-04-28T09:13:06;100981.22;;;12.11;nan
70053;BME280;57398;52.032;4.376;2023-04-28T09:15:58;100987.56;;;12.15;nan
70053;BME280;57398;52.032;4.376;2023-04-28T09:18:56;100975.44;;;12.09;nan
70053;BME280;57398;52.032;4.376;2023-04-28T09:21:48;100974.44;;;12.22;nan
70053;BME280;57398;52.032;4.376;2023-04-28T09:24:38;100976.59;;;12.36;nan
70053;BME280;57398;52.032;4.376;2023-04-28T09:27:27;100976.16;;;12.40;nan
70053;BME280;57398;52.032;4.376;2023-04-28T09:30:16;100965.75;;;12.40;nan
70053;BME280;57398;52.032;4.376;2023-04-28T09:33:04;100971.28;;;12.43;nan
70053;BME280;57398;52.032;4.376;2023-04-28T09:35:58;100973.41;;;12.34;nan
70053;BME280;57398;52.032;4.376;2023-04-28T09:38:46;100976.03;;;12.34;nan
70053;BME280;57398;52.032;4.376;2023-04-28T09:41:35;100980.00;;;12.37;nan
70053;BME280;57398;52.032;4.376;2023-04-28T09:44:25;100982.47;;;12.44;nan
70053;BME280;57398;52.032;4.376;2023-04-28T09:47:18;100991.53;;;12.41;nan
70053;BME280;57398;52.032;4.376;2023-04-28T09:50:09;100986.91;;;12.31;nan
70053;BME280;57398;52.032;4.376;2023-04-28T09:53:01;100994.50;;;12.33;nan
70053;BME280;57398;52.032;4.376;2023-04-28T09:55:51;100996.31;;;12.32;nan
70053;BME280;57398;52.032;4.376;2023-04-28T09:58:42;101001.63;;;12.38;nan
70053;BME280;57398;52.032;4.376;2023-04-28T10:01:32;101011.13;;;12.44;nan
70053;BME280;57398;52.032;4.376;2023-04-28T10:04:22;100999.94;;;12.43;nan
70053;BME280;57398;52.032;4.376;2023-04-28T10:07:11;101008.66;;;12.49;nan
70053;BME280;57398;52.032;4.376;2023-04-28T10:10:04;101011.81;;;12.27;nan
70053;BME280;57398;52.032;4.376;2023-04-28T10:12:54;101009.09;;;12.22;nan
70053;BME280;57398;52.032;4.376;2023-04-28T10:15:42;101004.09;;;12.21;nan
70053;BME280;57398;52.032;4.376;2023-04-28T10:18:32;101004.34;;;12.19;nan
70053;BME280;57398;52.032;4.376;2023-04-28T10:21:21;101006.94;;;12.19;nan
70053;BME280;57398;52.032;4.376;2023-04-28T10:24:14;101007.47;;;12.09;nan
70053;BME280;57398;52.032;4.376;2023-04-28T10:27:07;101025.28;;;12.12;nan
70053;BME280;57398;52.032;4.376;2023-04-28T10:30:09;101021.53;;;12.20;nan
70053;BME280;57398;52.032;4.376;2023-04-28T10:33:22;101037.94;;;12.21;nan
70053;BME280;57398;52.032;4.376;2023-04-28T10:36:45;101044.75;;;12.22;nan
70053;BME280;57398;52.032;4.376;2023-04-28T10:39:34;101048.53;;;11.95;nan
70053;BME280;57398;52.032;4.376;2023-04-28T10:42:51;101052.41;;;12.05;nan
70053;BME280;57398;52.032;4.376;2023-04-28T10:45:59;101057.94;;;11.97;nan
70053;BME280;57398;52.032;4.376;2023-04-28T10:48:55;101069.75;;;11.81;nan
70053;BME280;57398;52.032;4.376;2023-04-28T10:51:43;101073.38;;;11.80;nan
70053;BME280;57398;52.032;4.376;2023-04-28T10:54:31;101072.13;;;11.82;nan
70053;BME280;57398;52.032;4.376;2023-04-28T10:57:20;101072.72;;;11.84;nan
70053;BME280;57398;52.032;4.376;2023-04-28T11:00:28;101069.88;;;11.86;nan
70053;BME280;57398;52.032;4.376;2023-04-28T11:03:43;101071.63;;;11.92;nan
70053;BME280;57398;52.032;4.376;2023-04-28T11:06:37;101068.94;;;11.99;nan
70053;BME280;57398;52.032;4.376;2023-04-28T11:09:47;101078.31;;;12.00;nan
70053;BME280;57398;52.032;4.376;2023-04-28T11:12:36;101079.78;;;11.95;nan
70053;BME280;57398;52.032;4.376;2023-04-28T11:16:01;101072.31;;;11.99;nan
70053;BME280;57398;52.032;4.376;2023-04-28T11:18:55;101071.28;;;12.00;nan
70053;BME280;57398;52.032;4.376;2023-04-28T11:21:45;101070.50;;;12.00;nan
70053;BME280;57398;52.032;4.376;2023-04-28T11:24:34;101079.91;;;12.01;nan
70053;BME280;57398;52.032;4.376;2023-04-28T11:27:22;101087.06;;;12.05;nan
70053;BME280;57398;52.032;4.376;2023-04-28T11:30:20;101080.84;;;12.06;nan
70053;BME280;57398;52.032;4.376;2023-04-28T11:33:12;101082.94;;;12.28;nan
70053;BME280;57398;52.032;4.376;2023-04-28T11:36:00;101085.88;;;12.31;nan
70053;BME280;57398;52.032;4.376;2023-04-28T11:38:51;101083.66;;;12.47;nan
70053;BME280;57398;52.032;4.376;2023-04-28T11:41:42;101092.84;;;12.61;nan
70053;BME280;57398;52.032;4.376;2023-04-28T11:44:30;101092.28;;;12.59;nan
70053;BME280;57398;52.032;4.376;2023-04-28T11:47:27;101095.91;;;12.46;nan
70053;BME280;57398;52.032;4.376;2023-04-28T11:50:34;101090.22;;;12.49;nan
70053;BME280;57398;52.032;4.376;2023-04-28T11:53:40;101098.72;;;12.56;nan
70053;BME280;57398;52.032;4.376;2023-04-28T11:56:28;101091.00;;;12.50;nan
70053;BME280;57398;52.032;4.376;2023-04-28T11:59:18;101085.38;;;12.53;nan
70053;BME280;57398;52.032;4.376;2023-04-28T12:02:10;101082.66;;;12.71;nan
70053;BME280;57398;52.032;4.376;2023-04-28T12:05:04;101094.09;;;12.82;nan
70053;BME280;57398;52.032;4.376;2023-04-28T12:07:54;101089.81;;;12.76;nan
70053;BME280;57398;52.032;4.376;2023-04-28T12:10:42;101096.50;;;12.72;nan
70053;BME280;57398;52.032;4.376;2023-04-28T12:13:30;101094.34;;;12.81;nan
70053;BME280;57398;52.032;4.376;2023-04-28T12:16:36;101097.84;;;12.74;nan
70053;BME280;57398;52.032;4.376;2023-04-28T12:19:24;101098.75;;;12.80;nan
70053;BME280;57398;52.032;4.376;2023-04-28T12:22:13;101098.06;;;12.61;nan
70053;BME280;57398;52.032;4.376;2023-04-28T12:25:06;101104.06;;;12.73;nan
70053;BME280;57398;52.032;4.376;2023-04-28T12:27:58;101109.50;;;12.60;nan
70053;BME280;57398;52.032;4.376;2023-04-28T12:30:48;101107.69;;;12.72;nan
70053;BME280;57398;52.032;4.376;2023-04-28T12:33:36;101110.50;;;12.59;nan
70053;BME280;57398;52.032;4.376;2023-04-28T12:36:25;101116.50;;;12.60;nan
70053;BME280;57398;52.032;4.376;2023-04-28T12:39:14;101114.94;;;12.70;nan
70053;BME280;57398;52.032;4.376;2023-04-28T12:42:07;101119.38;;;12.70;nan
70053;BME280;57398;52.032;4.376;2023-04-28T12:44:55;101111.44;;;12.65;nan
70053;BME280;57398;52.032;4.376;2023-04-28T12:47:44;101125.72;;;12.74;nan
70053;BME280;57398;52.032;4.376;2023-04-28T12:50:33;101127.19;;;12.70;nan
70053;BME280;57398;52.032;4.376;2023-04-28T12:53:22;101132.41;;;12.70;nan
70053;BME280;57398;52.032;4.376;2023-04-28T12:56:10;101142.47;;;12.66;nan
70053;BME280;57398;52.032;4.376;2023-04-28T12:59:00;101136.94;;;12.63;nan
70053;BME280;57398;52.032;4.376;2023-04-28T13:01:50;101136.44;;;12.42;nan
70053;BME280;57398;52.032;4.376;2023-04-28T13:04:38;101131.16;;;12.61;nan
70053;BME280;57398;52.032;4.376;2023-04-28T13:07:28;101125.16;;;12.60;nan
70053;BME280;57398;52.032;4.376;2023-04-28T13:10:17;101135.22;;;12.68;nan
70053;BME280;57398;52.032;4.376;2023-04-28T13:13:07;101141.13;;;12.64;nan
70053;BME280;57398;52.032;4.376;2023-04-28T13:15:56;101148.53;;;12.78;nan
70053;BME280;57398;52.032;4.376;2023-04-28T13:18:44;101131.25;;;12.54;nan
70053;BME280;57398;52.032;4.376;2023-04-28T13:21:34;101145.66;;;12.80;nan
70053;BME280;57398;52.032;4.376;2023-04-28T13:24:25;101136.69;;;12.64;nan
70053;BME280;57398;52.032;4.376;2023-04-28T13:27:13;101140.13;;;12.76;nan
70053;BME280;57398;52.032;4.376;2023-04-28T13:30:01;101144.78;;;12.86;nan
70053;BME280;57398;52.032;4.376;2023-04-28T13:32:52;101146.38;;;12.99;nan
70053;BME280;57398;52.032;4.376;2023-04-28T13:35:43;101145.47;;;12.93;nan
70053;BME280;57398;52.032;4.376;2023-04-28T13:38:31;101140.44;;;12.80;nan
70053;BME280;57398;52.032;4.376;2023-04-28T13:41:19;101146.22;;;12.70;nan
70053;BME280;57398;52.032;4.376;2023-04-28T13:44:08;101138.97;;;12.61;nan
70053;BME280;57398;52.032;4.376;2023-04-28T13:46:56;101146.69;;;12.91;nan
70053;BME280;57398;52.032;4.376;2023-04-28T13:49:46;101153.75;;;13.02;nan
70053;BME280;57398;52.032;4.376;2023-04-28T13:52:35;101152.38;;;12.88;nan
70053;BME280;57398;52.032;4.376;2023-04-28T13:55:23;101148.16;;;12.75;nan
70053;BME280;57398;52.032;4.376;2023-04-28T13:58:14;101148.63;;;12.72;nan
70053;BME280;57398;52.032;4.376;2023-04-28T14:01:03;101157.13;;;12.79;nan
70053;BME280;57398;52.032;4.376;2023-04-28T14:03:51;101160.28;;;12.69;nan
70053;BME280;57398;52.032;4.376;2023-04-28T14:06:41;101163.09;;;12.56;nan
70053;BME280;57398;52.032;4.376;2023-04-28T14:09:29;101155.38;;;12.61;nan
70053;BME280;57398;52.032;4.376;2023-04-28T14:12:18;101158.69;;;12.68;nan
70053;BME280;57398;52.032;4.376;2023-04-28T14:15:08;101164.81;;;12.62;nan
70053;BME280;57398;52.032;4.376;2023-04-28T14:17:57;101163.13;;;12.68;nan
70053;BME280;57398;52.032;4.376;2023-04-28T14:20:45;101166.28;;;12.58;nan
70053;BME280;57398;52.032;4.376;2023-04-28T14:23:35;101178.75;;;12.68;nan
70053;BME280;57398;52.032;4.376;2023-04-28T14:26:23;101169.66;;;12.58;nan
70053;BME280;57398;52.032;4.376;2023-04-28T14:29:12;101173.25;;;12.46;nan
70053;BME280;57398;52.032;4.376;2023-04-28T14:32:00;101170.44;;;12.47;nan
70053;BME280;57398;52.032;4.376;2023-04-28T14:34:48;101167.34;;;12.39;nan
70053;BME280;57398;52.032;4.376;2023-04-28T14:37:36;101166.06;;;12.29;nan
70053;BME280;57398;52.032;4.376;2023-04-28T14:40:26;101166.59;;;12.20;nan
70053;BME280;57398;52.032;4.376;2023-04-28T14:43:14;101175.91;;;12.27;nan
70053;BME280;57398;52.032;4.376;2023-04-28T14:46:03;101180.22;;;12.33;nan
70053;BME280;57398;52.032;4.376;2023-04-28T14:48:51;101178.78;;;12.38;nan
70053;BME280;57398;52.032;4.376;2023-04-28T14:51:40;101183.63;;;12.34;nan
70053;BME280;57398;52.032;4.376;2023-04-28T14:54:30;101189.53;;;12.41;nan
70053;BME280;57398;52.032;4.376;2023-04-28T14:57:21;101184.88;;;12.31;nan
70053;BME280;57398;52.032;4.376;2023-04-28T15:00:10;101189.28;;;12.31;nan
70053;BME280;57398;52.032;4.376;2023-04-28T15:02:58;101182.97;;;12.39;nan
70053;BME280;57398;52.032;4.376;2023-04-28T15:05:47;101179.94;;;12.42;nan
70053;BME280;57398;52.032;4.376;2023-04-28T15:08:35;101184.41;;;12.34;nan
70053;BME280;57398;52.032;4.376;2023-04-28T15:11:25;101179.88;;;12.30;nan
70053;BME280;57398;52.032;4.376;2023-04-28T15:14:15;101180.34;;;12.39;nan
70053;BME280;57398;52.032;4.376;2023-04-28T15:17:04;101188.00;;;12.22;nan
70053;BME280;57398;52.032;4.376;2023-04-28T15:19:52;101195.88;;;12.33;nan